createdAt,value
2022-11-16T00:02:13.167Z,100353.19
2022-11-16T00:04:40.257Z,100344.31
2022-11-16T00:07:07.189Z,100347.00
2022-11-16T00:09:33.970Z,100338.59
2022-11-16T00:12:04.641Z,100339.09
2022-11-16T00:14:36.076Z,100320.16
2022-11-16T00:17:03.591Z,100319.81
2022-11-16T00:19:30.439Z,100321.31
2022-11-16T00:21:57.124Z,100320.78
2022-11-16T00:24:23.754Z,100324.19
2022-11-16T00:26:51.034Z,100329.13
2022-11-16T00:29:22.032Z,100337.16
2022-11-16T00:31:49.236Z,100319.38
2022-11-16T00:34:16.330Z,100319.22
2022-11-16T00:36:42.973Z,100321.75
2022-11-16T00:39:15.382Z,100321.41
2022-11-16T00:41:43.166Z,100317.53
2022-11-16T00:44:10.427Z,100321.56
2022-11-16T00:46:37.496Z,100306.78
2022-11-16T00:49:05.488Z,100320.03
2022-11-16T00:51:32.917Z,100327.38
2022-11-16T00:53:59.472Z,100328.38
2022-11-16T00:56:25.955Z,100318.31
2022-11-16T00:58:52.506Z,100320.84
2022-11-16T01:01:19.320Z,100314.81
2022-11-16T01:03:46.017Z,100298.75
2022-11-16T01:06:14.233Z,100304.31
2022-11-16T01:08:42.043Z,100291.75
2022-11-16T01:11:31.137Z,100298.59
2022-11-16T01:13:57.811Z,100300.44
2022-11-16T01:16:27.227Z,100296.56
2022-11-16T01:18:55.047Z,100306.94
2022-11-16T01:21:22.616Z,100294.88
2022-11-16T01:23:49.620Z,100296.91
2022-11-16T01:26:16.033Z,100292.19
2022-11-16T01:28:42.568Z,100298.19
2022-11-16T01:31:10.542Z,100292.81
2022-11-16T01:33:37.467Z,100290.78
2022-11-16T01:36:14.293Z,100304.31
2022-11-16T01:38:45.593Z,100305.81
2022-11-16T01:41:18.531Z,100295.75
2022-11-16T01:43:50.726Z,100299.63
2022-11-16T01:46:17.147Z,100291.72
2022-11-16T01:48:44.184Z,100294.91
2022-11-16T01:51:10.757Z,100289.03
2022-11-16T01:53:37.633Z,100284.84
2022-11-16T01:56:04.830Z,100273.00
2022-11-16T01:58:31.636Z,100276.50
2022-11-16T02:00:58.379Z,100278.47
2022-11-16T02:03:25.777Z,100270.09
2022-11-16T02:06:18.556Z,100258.41
2022-11-16T02:09:19.629Z,100269.25
2022-11-16T02:12:05.311Z,100262.59
2022-11-16T02:14:50.431Z,100264.56
2022-11-16T02:18:04.136Z,100256.72
2022-11-16T02:20:46.637Z,100251.84
2022-11-16T02:23:15.790Z,100240.78
2022-11-16T02:26:01.041Z,100232.59
2022-11-16T02:29:18.739Z,100243.47
2022-11-16T02:31:51.919Z,100245.72
2022-11-16T02:34:21.166Z,100253.88
2022-11-16T02:36:53.177Z,100248.38
2022-11-16T02:39:24.683Z,100233.03
2022-11-16T02:41:53.143Z,100237.50
2022-11-16T02:44:28.773Z,100239.50
2022-11-16T02:46:59.209Z,100228.25
2022-11-16T02:49:27.502Z,100248.94
2022-11-16T02:51:54.759Z,100238.56
2022-11-16T02:54:23.573Z,100234.72
2022-11-16T02:57:22.269Z,100230.28
2022-11-16T02:59:54.284Z,100224.59
2022-11-16T03:02:46.879Z,100229.59
2022-11-16T03:05:35.447Z,100219.72
2022-11-16T03:08:13.679Z,100219.88
2022-11-16T03:11:02.037Z,100230.38
2022-11-16T03:13:32.618Z,100229.16
2022-11-16T03:16:01.049Z,100218.56
2022-11-16T03:18:29.097Z,100238.00
2022-11-16T03:21:05.482Z,100227.31
2022-11-16T03:23:32.419Z,100214.28
2022-11-16T03:26:05.181Z,100220.84
2022-11-16T03:28:46.785Z,100205.94
2022-11-16T03:31:24.313Z,100220.69
2022-11-16T03:33:56.086Z,100225.81
2022-11-16T03:36:32.819Z,100239.53
2022-11-16T03:39:05.593Z,100241.34
2022-11-16T03:41:35.368Z,100234.03
2022-11-16T03:44:02.271Z,100232.22
2022-11-16T03:46:28.971Z,100217.13
2022-11-16T03:49:00.721Z,100214.84
2022-11-16T03:51:27.549Z,100221.84
2022-11-16T03:53:56.991Z,100226.72
2022-11-16T03:56:23.511Z,100210.50
2022-11-16T03:58:49.982Z,100212.84
2022-11-16T04:01:16.442Z,100212.84
2022-11-16T04:03:43.003Z,100209.97
2022-11-16T04:06:29.582Z,100211.34
2022-11-16T04:09:28.703Z,100214.97
2022-11-16T04:12:14.024Z,100227.56
2022-11-16T04:14:59.400Z,100205.31
2022-11-16T04:17:45.070Z,100224.06
2022-11-16T04:20:32.953Z,100221.69
2022-11-16T04:23:21.103Z,100214.38
2022-11-16T04:25:50.069Z,100221.69
2022-11-16T04:28:19.776Z,100230.22
2022-11-16T04:31:10.896Z,100218.88
2022-11-16T04:34:03.671Z,100230.22
2022-11-16T04:36:48.573Z,100217.50
2022-11-16T04:39:15.174Z,100225.03
2022-11-16T04:41:59.900Z,100224.06
2022-11-16T04:44:46.299Z,100223.53
2022-11-16T04:47:12.686Z,100210.63
2022-11-16T04:49:39.473Z,100217.03
2022-11-16T04:52:06.137Z,100228.84
2022-11-16T04:54:32.657Z,100221.84
2022-11-16T04:56:59.070Z,100217.94
2022-11-16T04:59:25.507Z,100235.88
2022-11-16T05:02:09.971Z,100233.50
2022-11-16T05:04:41.252Z,100236.41
2022-11-16T05:07:13.236Z,100234.03
2022-11-16T05:09:42.800Z,100224.06
2022-11-16T05:12:11.487Z,100234.56
2022-11-16T05:14:37.934Z,100226.56
2022-11-16T05:17:04.503Z,100219.72
2022-11-16T05:19:49.310Z,100220.16
2022-11-16T05:22:15.726Z,100230.53
2022-11-16T05:24:42.227Z,100221.31
2022-11-16T05:27:12.772Z,100220.31
2022-11-16T05:29:39.938Z,100203.84
2022-11-16T05:32:07.287Z,100224.97
2022-11-16T05:34:34.359Z,100227.78
2022-11-16T05:37:00.780Z,100225.72
2022-11-16T05:39:27.304Z,100220.84
2022-11-16T05:41:53.914Z,100219.31
2022-11-16T05:44:20.792Z,100229.81
2022-11-16T05:46:47.422Z,100218.81
2022-11-16T05:49:14.557Z,100219.47
2022-11-16T05:51:43.024Z,100227.63
2022-11-16T05:54:13.601Z,100224.28
2022-11-16T05:56:40.364Z,100227.09
2022-11-16T05:59:07.847Z,100214.06
2022-11-16T06:01:35.634Z,100211.16
2022-11-16T06:04:02.864Z,100219.84
2022-11-16T06:06:29.664Z,100213.84
2022-11-16T06:08:56.264Z,100210.50
2022-11-16T06:11:22.889Z,100220.00
2022-11-16T06:13:49.491Z,100218.81
2022-11-16T06:16:15.889Z,100222.47
2022-11-16T06:18:45.079Z,100228.63
2022-11-16T06:21:12.791Z,100220.94
2022-11-16T06:23:39.503Z,100232.66
2022-11-16T06:26:06.496Z,100229.75
2022-11-16T06:28:34.203Z,100241.47
2022-11-16T06:31:01.317Z,100240.66
2022-11-16T06:33:32.331Z,100233.47
2022-11-16T06:36:00.145Z,100240.66
2022-11-16T06:38:27.521Z,100233.47
2022-11-16T06:40:56.550Z,100245.66
2022-11-16T06:43:24.376Z,100239.50
2022-11-16T06:45:55.969Z,100253.22
2022-11-16T06:48:23.356Z,100229.31
2022-11-16T06:50:51.802Z,100244.53
2022-11-16T06:53:19.926Z,100241.19
2022-11-16T06:55:48.391Z,100242.31
2022-11-16T06:58:15.086Z,100249.16
2022-11-16T07:00:41.525Z,100236.63
2022-11-16T07:03:08.320Z,100240.81
2022-11-16T07:05:38.465Z,100250.69
2022-11-16T07:08:04.862Z,100239.34
2022-11-16T07:10:31.275Z,100244.13
2022-11-16T07:12:57.744Z,100230.00
2022-11-16T07:15:24.434Z,100244.81
2022-11-16T07:17:50.811Z,100229.47
2022-11-16T07:20:18.514Z,100234.50
2022-11-16T07:22:45.090Z,100247.34
2022-11-16T07:25:11.522Z,100251.84
2022-11-16T07:27:37.976Z,100254.13
2022-11-16T07:30:05.550Z,100264.88
2022-11-16T07:32:32.119Z,100252.66
2022-11-16T07:34:59.617Z,100260.53
2022-11-16T07:37:26.541Z,100259.22
2022-11-16T07:39:53.203Z,100251.25
2022-11-16T07:42:19.850Z,100262.59
2022-11-16T07:44:46.369Z,100256.56
2022-11-16T07:47:12.822Z,100254.34
2022-11-16T07:49:39.488Z,100250.69
2022-11-16T07:52:09.466Z,100253.75
2022-11-16T07:54:36.715Z,100250.00
2022-11-16T07:57:03.274Z,100266.25
2022-11-16T07:59:29.832Z,100252.63
2022-11-16T08:01:56.590Z,100262.75
2022-11-16T08:04:23.470Z,100249.84
2022-11-16T08:06:51.738Z,100243.38
2022-11-16T08:09:18.355Z,100242.56
2022-11-16T08:11:44.959Z,100246.22
2022-11-16T08:14:11.739Z,100253.59
2022-11-16T08:16:38.380Z,100253.28
2022-11-16T08:19:04.821Z,100262.81
2022-11-16T08:21:31.250Z,100245.28
2022-11-16T08:23:58.847Z,100254.50
2022-11-16T08:26:25.951Z,100260.53
2022-11-16T08:28:53.858Z,100264.59
2022-11-16T08:31:24.189Z,100266.44
2022-11-16T08:33:51.915Z,100260.41
2022-11-16T08:36:19.005Z,100259.78
2022-11-16T08:38:47.400Z,100257.84
2022-11-16T08:41:14.200Z,100258.44
2022-11-16T08:43:40.834Z,100255.34
2022-11-16T08:46:09.530Z,100269.63
2022-11-16T08:48:37.389Z,100255.34
2022-11-16T08:51:21.780Z,100270.78
2022-11-16T08:53:49.850Z,100272.88
2022-11-16T08:56:18.676Z,100275.25
2022-11-16T08:58:53.782Z,100267.25
2022-11-16T09:01:26.192Z,100266.44
2022-11-16T09:03:53.929Z,100262.63
2022-11-16T09:06:20.529Z,100264.75
2022-11-16T09:08:47.057Z,100259.00
2022-11-16T09:11:16.805Z,100270.44
2022-11-16T09:13:44.986Z,100267.47
2022-11-16T09:16:11.682Z,100268.63
2022-11-16T09:18:38.597Z,100266.78
2022-11-16T09:21:05.113Z,100265.72
2022-11-16T09:23:31.547Z,100280.34
2022-11-16T09:26:03.406Z,100272.34
2022-11-16T09:28:30.701Z,100290.72
2022-11-16T09:31:01.969Z,100275.03
2022-11-16T09:33:30.584Z,100286.91
2022-11-16T09:36:01.708Z,100283.88
2022-11-16T09:38:46.627Z,100293.25
2022-11-16T09:41:14.840Z,100305.72
2022-11-16T09:43:53.664Z,100298.72
2022-11-16T09:46:29.192Z,100302.38
2022-11-16T09:49:02.932Z,100309.69
2022-11-16T09:51:33.618Z,100302.97
2022-11-16T09:54:14.997Z,100301.16
2022-11-16T09:56:42.900Z,100312.28
2022-11-16T09:59:17.845Z,100315.63
2022-11-16T10:01:55.104Z,100310.28
2022-11-16T10:04:43.807Z,100296.03
2022-11-16T10:07:22.640Z,100315.81
2022-11-16T10:09:49.699Z,100316.94
2022-11-16T10:12:31.346Z,100311.91
2022-11-16T10:15:17.103Z,100317.94
2022-11-16T10:18:09.636Z,100316.44
2022-11-16T10:20:54.725Z,100327.25
2022-11-16T10:23:41.876Z,100312.84
2022-11-16T10:26:32.116Z,100320.44
2022-11-16T10:29:33.732Z,100317.47
2022-11-16T10:32:18.816Z,100326.16
2022-11-16T10:34:49.349Z,100309.13
2022-11-16T10:37:15.945Z,100318.09
2022-11-16T10:39:42.816Z,100314.44
2022-11-16T10:42:18.316Z,100323.94
2022-11-16T10:44:49.246Z,100311.44
2022-11-16T10:47:28.183Z,100318.03
2022-11-16T10:50:01.678Z,100300.09
2022-11-16T10:52:28.425Z,100306.13
2022-11-16T10:54:54.955Z,100296.22
2022-11-16T10:57:23.747Z,100296.91
2022-11-16T10:59:55.376Z,100306.53
2022-11-16T11:02:24.728Z,100307.34
2022-11-16T11:05:17.554Z,100306.06
2022-11-16T11:07:55.325Z,100305.13
2022-11-16T11:10:34.302Z,100294.47
2022-11-16T11:13:12.598Z,100305.38
2022-11-16T11:15:40.639Z,100304.69
2022-11-16T11:18:20.011Z,100304.25
2022-11-16T11:21:09.933Z,100296.09
2022-11-16T11:23:44.039Z,100294.72
2022-11-16T11:26:24.885Z,100298.22
2022-11-16T11:28:51.597Z,100279.31
2022-11-16T11:31:25.932Z,100288.41
2022-11-16T11:33:59.391Z,100295.13
2022-11-16T11:36:33.130Z,100288.56
2022-11-16T11:39:05.688Z,100288.75
2022-11-16T11:41:43.513Z,100292.13
2022-11-16T11:44:13.034Z,100287.94
2022-11-16T11:47:35.163Z,100293.94
2022-11-16T11:49:38.467Z,100287.63
2022-11-16T11:52:14.050Z,100276.59
2022-11-16T11:54:46.722Z,100274.94
2022-11-16T11:57:20.516Z,100282.84
2022-11-16T11:59:48.097Z,100271.78
2022-11-16T12:02:35.617Z,100290.13
2022-11-16T12:05:15.326Z,100280.31
2022-11-16T12:07:50.923Z,100278.34
2022-11-16T12:10:46.456Z,100291.88
2022-11-16T12:13:57.904Z,100286.38
2022-11-16T12:16:38.487Z,100273.94
2022-11-16T12:19:14.494Z,100284.25
2022-11-16T12:22:06.905Z,100274.72
2022-11-16T12:25:11.991Z,100294.59
2022-11-16T12:28:10.037Z,100285.13
2022-11-16T12:30:58.821Z,100283.47
2022-11-16T12:34:03.987Z,100274.47
2022-11-16T12:36:39.426Z,100283.63
2022-11-16T12:39:14.875Z,100277.97
2022-11-16T12:41:59.678Z,100288.19
2022-11-16T12:44:40.738Z,100274.47
2022-11-16T12:47:23.622Z,100276.38
2022-11-16T12:50:08.632Z,100281.88
2022-11-16T12:53:18.997Z,100280.09
2022-11-16T12:56:09.206Z,100271.97
2022-11-16T12:58:38.611Z,100277.41
2022-11-16T13:01:25.324Z,100278.94
2022-11-16T13:04:12.775Z,100275.44
2022-11-16T13:07:11.420Z,100265.72
2022-11-16T13:09:44.543Z,100282.75
2022-11-16T13:12:16.915Z,100294.94
2022-11-16T13:14:47.474Z,100280.78
2022-11-16T13:17:28.003Z,100287.47
2022-11-16T13:20:29.800Z,100285.50
2022-11-16T13:23:07.602Z,100277.13
2022-11-16T13:25:41.724Z,100285.50
2022-11-16T13:28:33.902Z,100289.16
2022-11-16T13:31:12.081Z,100282.44
2022-11-16T13:33:52.619Z,100278.34
2022-11-16T13:36:39.423Z,100277.16
2022-11-16T13:39:13.747Z,100271.94
2022-11-16T13:41:44.833Z,100287.63
2022-11-16T13:44:17.675Z,100279.78
2022-11-16T13:46:56.766Z,100278.09
2022-11-16T13:49:33.192Z,100276.75
2022-11-16T13:52:21.356Z,100280.25
2022-11-16T13:54:53.073Z,100279.09
2022-11-16T13:57:29.759Z,100267.06
2022-11-16T14:00:02.426Z,100271.09
2022-11-16T14:02:36.263Z,100263.41
2022-11-16T14:05:04.617Z,100267.53
2022-11-16T14:07:47.186Z,100276.03
2022-11-16T14:10:49.029Z,100276.59
2022-11-16T14:13:42.109Z,100274.38
2022-11-16T14:16:17.824Z,100279.34
2022-11-16T14:18:59.899Z,100268.31
2022-11-16T14:21:42.315Z,100271.97
2022-11-16T14:24:18.009Z,100275.63
2022-11-16T14:26:53.521Z,100275.06
2022-11-16T14:29:57.628Z,100276.75
2022-11-16T14:32:35.827Z,100271.06
2022-11-16T14:35:06.903Z,100267.88
2022-11-16T14:37:38.519Z,100270.84
2022-11-16T14:40:16.760Z,100254.97
2022-11-16T14:43:15.458Z,100271.22
2022-11-16T14:45:40.986Z,100271.38
2022-11-16T14:48:18.391Z,100263.38
2022-11-16T14:51:04.575Z,100254.16
2022-11-16T14:53:34.142Z,100264.50
2022-11-16T14:56:21.181Z,100258.88
2022-11-16T14:58:58.882Z,100265.50
2022-11-16T15:01:39.206Z,100253.44
2022-11-16T15:04:10.535Z,100262.59
2022-11-16T15:06:42.690Z,100258.63
2022-11-16T15:09:16.671Z,100261.31
2022-11-16T15:12:05.244Z,100250.78
2022-11-16T15:14:35.450Z,100245.94
2022-11-16T15:17:01.821Z,100256.91
2022-11-16T15:19:31.900Z,100253.09
2022-11-16T15:22:03.334Z,100268.25
2022-11-16T15:24:32.525Z,100255.03
2022-11-16T15:27:25.717Z,100267.69
2022-11-16T15:29:52.277Z,100252.47
2022-11-16T15:32:18.959Z,100247.72
2022-11-16T15:34:55.285Z,100269.28
2022-11-16T15:37:31.549Z,100271.63
2022-11-16T15:39:59.972Z,100259.09
2022-11-16T15:42:28.171Z,100259.63
2022-11-16T15:44:56.013Z,100252.91
2022-11-16T15:47:23.642Z,100266.09
2022-11-16T15:49:52.881Z,100260.47
2022-11-16T15:52:44.819Z,100259.28
2022-11-16T15:55:49.434Z,100259.28
2022-11-16T15:58:30.610Z,100266.94
2022-11-16T16:00:59.006Z,100263.56
2022-11-16T16:03:28.594Z,100259.00
2022-11-16T16:05:55.710Z,100249.31
2022-11-16T16:08:39.912Z,100270.59
2022-11-16T16:11:27.621Z,100269.06
2022-11-16T16:14:02.436Z,100266.84
2022-11-16T16:16:36.298Z,100274.53
2022-11-16T16:19:27.152Z,100273.84
2022-11-16T16:21:53.703Z,100268.50
2022-11-16T16:24:41.889Z,100267.38
2022-11-16T16:27:25.115Z,100269.50
2022-11-16T16:29:53.538Z,100271.47
2022-11-16T16:32:27.452Z,100267.81
2022-11-16T16:34:55.791Z,100251.38
2022-11-16T16:37:22.812Z,100271.94
2022-11-16T16:39:49.305Z,100267.06
2022-11-16T16:42:17.397Z,100265.94
2022-11-16T16:44:45.555Z,100283.59
2022-11-16T16:47:12.623Z,100277.03
2022-11-16T16:49:39.712Z,100292.44
2022-11-16T16:52:07.045Z,100280.25
2022-11-16T16:54:33.789Z,100287.25
2022-11-16T16:57:02.254Z,100270.16
2022-11-16T16:59:32.077Z,100279.00
2022-11-16T17:01:59.305Z,100292.31
2022-11-16T17:04:26.169Z,100291.25
2022-11-16T17:06:52.967Z,100266.75
2022-11-16T17:09:19.819Z,100278.94
2022-11-16T17:11:47.659Z,100281.31
2022-11-16T17:14:14.476Z,100275.88
2022-11-16T17:16:41.046Z,100272.66
2022-11-16T17:19:07.562Z,100292.53
2022-11-16T17:21:34.026Z,100292.84
2022-11-16T17:24:00.441Z,100297.47
2022-11-16T17:26:29.316Z,100305.09
2022-11-16T17:28:57.545Z,100296.16
2022-11-16T17:31:25.904Z,100283.44
2022-11-16T17:33:52.678Z,100293.53
2022-11-16T17:36:20.073Z,100299.31
2022-11-16T17:38:46.723Z,100271.47
2022-11-16T17:41:18.685Z,100286.75
2022-11-16T17:43:46.295Z,100299.91
2022-11-16T17:46:15.447Z,100277.00
2022-11-16T17:48:43.461Z,100280.66
2022-11-16T17:51:14.852Z,100296.19
2022-11-16T17:53:44.144Z,100298.28
2022-11-16T17:56:16.106Z,100308.38
2022-11-16T17:58:43.018Z,100299.31
2022-11-16T18:01:09.812Z,100308.94
2022-11-16T18:03:37.255Z,100263.78
2022-11-16T18:06:08.712Z,100306.59
2022-11-16T18:08:36.278Z,100315.41
2022-11-16T18:11:24.822Z,100314.44
2022-11-16T18:14:00.340Z,100290.91
2022-11-16T18:16:29.926Z,100307.31
2022-11-16T18:19:02.276Z,100312.34
2022-11-16T18:21:29.457Z,100301.56
2022-11-16T18:23:58.047Z,100312.91
2022-11-16T18:26:25.022Z,100303.94
2022-11-16T18:28:52.683Z,100284.94
2022-11-16T18:31:21.492Z,100306.19
2022-11-16T18:33:51.380Z,100274.16
2022-11-16T18:36:19.813Z,100287.72
2022-11-16T18:38:46.756Z,100303.25
2022-11-16T18:41:13.107Z,100305.75
2022-11-16T18:43:40.567Z,100307.72
2022-11-16T18:46:07.116Z,100307.91
2022-11-16T18:48:33.674Z,100300.47
2022-11-16T18:51:01.217Z,100292.22
2022-11-16T18:53:29.515Z,100310.56
2022-11-16T18:55:58.130Z,100302.72
2022-11-16T18:58:49.183Z,100295.28
2022-11-16T19:01:14.632Z,100305.50
2022-11-16T19:03:41.528Z,100308.16
2022-11-16T19:06:09.564Z,100304.53
2022-11-16T19:08:38.012Z,100299.91
2022-11-16T19:11:10.312Z,100278.78
2022-11-16T19:13:37.402Z,100273.75
2022-11-16T19:16:04.243Z,100284.66
2022-11-16T19:18:30.823Z,100281.44
2022-11-16T19:21:07.840Z,100261.03
2022-11-16T19:23:47.656Z,100281.72
2022-11-16T19:26:16.015Z,100289.41
2022-11-16T19:28:44.842Z,100280.22
2022-11-16T19:31:12.787Z,100283.56
2022-11-16T19:33:42.868Z,100279.22
2022-11-16T19:36:13.712Z,100280.47
2022-11-16T19:38:40.559Z,100270.97
2022-11-16T19:41:09.536Z,100259.91
2022-11-16T19:43:36.262Z,100263.81
2022-11-16T19:46:10.501Z,100281.19
2022-11-16T19:48:37.477Z,100271.25
2022-11-16T19:51:09.412Z,100277.97
2022-11-16T19:53:36.805Z,100261.47
2022-11-16T19:56:04.350Z,100273.91
2022-11-16T19:58:31.989Z,100272.38
2022-11-16T20:01:03.020Z,100275.31
2022-11-16T20:03:30.377Z,100276.84
2022-11-16T20:06:07.121Z,100271.09
2022-11-16T20:08:33.563Z,100255.03
2022-11-16T20:11:00.188Z,100253.22
2022-11-16T20:13:28.274Z,100255.03
2022-11-16T20:15:55.934Z,100259.66
2022-11-16T20:18:22.413Z,100242.88
2022-11-16T20:20:48.868Z,100260.03
2022-11-16T20:23:15.615Z,100257.00
2022-11-16T20:25:42.078Z,100225.25
2022-11-16T20:28:09.448Z,100244.53
2022-11-16T20:30:35.952Z,100237.53
2022-11-16T20:33:02.378Z,100245.81
2022-11-16T20:35:28.943Z,100217.13
2022-11-16T20:37:55.398Z,100225.13
2022-11-16T20:40:21.827Z,100237.44
2022-11-16T20:42:48.285Z,100245.50
2022-11-16T20:45:14.946Z,100239.94
2022-11-16T20:47:41.389Z,100254.75
2022-11-16T20:50:08.403Z,100238.53
2022-11-16T20:52:38.260Z,100235.44
2022-11-16T20:55:09.510Z,100235.47
2022-11-16T20:57:35.924Z,100255.16
2022-11-16T21:00:02.482Z,100249.97
2022-11-16T21:02:29.206Z,100261.91
2022-11-16T21:05:00.032Z,100250.44
2022-11-16T21:07:27.032Z,100248.03
2022-11-16T21:10:12.023Z,100227.06
2022-11-16T21:12:56.926Z,100241.06
2022-11-16T21:15:23.482Z,100220.06
2022-11-16T21:17:49.862Z,100224.56
2022-11-16T21:20:31.997Z,100219.25
2022-11-16T21:22:58.426Z,100232.78
2022-11-16T21:25:24.822Z,100216.16
2022-11-16T21:27:51.326Z,100228.59
2022-11-16T21:30:17.736Z,100233.19
2022-11-16T21:32:44.155Z,100238.94
2022-11-16T21:35:10.545Z,100230.69
2022-11-16T21:37:36.977Z,100223.97
2022-11-16T21:40:03.623Z,100215.16
2022-11-16T21:42:30.095Z,100210.53
2022-11-16T21:44:56.476Z,100213.91
2022-11-16T21:47:22.982Z,100214.19
2022-11-16T21:50:24.340Z,100214.44
2022-11-16T21:52:36.087Z,100221.88
2022-11-16T21:55:02.502Z,100225.78
2022-11-16T21:57:29.034Z,100222.00
2022-11-16T21:59:55.471Z,100215.81
2022-11-16T22:02:21.902Z,100211.91
2022-11-16T22:05:06.747Z,100207.00
2022-11-16T22:07:33.289Z,100217.22
2022-11-16T22:10:01.433Z,100208.56
2022-11-16T22:12:29.117Z,100205.06
2022-11-16T22:14:56.061Z,100227.00
2022-11-16T22:17:22.586Z,100197.50
2022-11-16T22:19:49.016Z,100222.28
2022-11-16T22:22:15.549Z,100202.69
2022-11-16T22:24:42.061Z,100221.69
2022-11-16T22:27:08.519Z,100222.28
2022-11-16T22:29:34.983Z,100229.81
2022-11-16T22:32:01.477Z,100219.19
2022-11-16T22:34:28.093Z,100228.41
2022-11-16T22:36:57.263Z,100227.00
2022-11-16T22:39:23.675Z,100225.34
2022-11-16T22:41:50.122Z,100209.66
2022-11-16T22:44:16.534Z,100232.44
2022-11-16T22:46:42.925Z,100208.56
2022-11-16T22:49:09.700Z,100211.53
2022-11-16T22:51:36.205Z,100206.34
2022-11-16T22:54:04.549Z,100202.41
2022-11-16T22:56:32.906Z,100203.38
2022-11-16T22:59:01.056Z,100186.47
2022-11-16T23:01:27.488Z,100197.41
2022-11-16T23:03:53.992Z,100190.69
2022-11-16T23:06:20.442Z,100199.06
2022-11-16T23:08:47.598Z,100185.63
2022-11-16T23:11:35.167Z,100201.88
2022-11-16T23:14:20.461Z,100188.03
2022-11-16T23:16:47.284Z,100194.03
2022-11-16T23:19:33.920Z,100195.84
2022-11-16T23:22:18.937Z,100187.59
2022-11-16T23:25:04.763Z,100185.50
2022-11-16T23:27:45.799Z,100180.06
2022-11-16T23:30:13.538Z,100183.00
2022-11-16T23:32:41.288Z,100170.25
2022-11-16T23:35:09.041Z,100157.41
2022-11-16T23:38:01.369Z,100145.41
2022-11-16T23:40:30.481Z,100142.88
2022-11-16T23:43:16.124Z,100144.41
2022-11-16T23:45:43.312Z,100149.72
2022-11-16T23:48:11.800Z,100144.28
2022-11-16T23:50:40.688Z,100134.50
2022-11-16T23:53:08.988Z,100132.00
2022-11-16T23:55:38.393Z,100119.69
2022-11-16T23:58:05.805Z,100113.84
